Time;durP1;ratioP1;P1;durP2;ratioP2;P2;SDS_P1;SDS_P2;PMS_P1;PMS_P2;Temp;Humidity;BMP_temperature;BMP_pressure;BME280_temperature;BME280_humidity;BME280_pressure;Samples;Min_cycle;Max_cycle;Signal;HPM_P1;HPM_P2
2021/08/07 00:04:57;;;;;;;4.27;3.33;;;;;;;12.62;77.84;98891.27;257274;1104;115200;-67
2021/08/07 00:10:02;;;;;;;8.85;3.55;;;;;;;12.54;77.75;98889.92;257017;1104;114981;-67
2021/08/07 00:15:07;;;;;;;5.20;2.60;;;;;;;12.51;77.96;98895.83;257051;1104;115024;-67
2021/08/07 00:20:11;;;;;;;3.15;2.33;;;;;;;12.52;78.15;98896.64;255034;1104;115083;-67
2021/08/07 00:25:15;;;;;;;5.50;2.53;;;;;;;12.48;78.06;98893.69;256172;1104;114573;-67
2021/08/07 00:30:19;;;;;;;8.65;3.30;;;;;;;12.34;77.63;98895.28;257039;1104;115285;-66
2021/08/07 00:35:24;;;;;;;4.20;3.30;;;;;;;12.25;77.72;98903.02;256959;1104;114691;-68
2021/08/07 00:40:27;;;;;;;4.58;3.33;;;;;;;12.11;76.81;98901.94;256188;1100;114278;-68
2021/08/07 00:45:32;;;;;;;8.28;4.15;;;;;;;12.08;77.69;98907.80;254765;1104;116618;-67
2021/08/07 00:50:37;;;;;;;3.60;3.20;;;;;;;11.94;77.34;98909.37;254647;1100;116241;-67
2021/08/07 00:55:41;;;;;;;3.93;2.55;;;;;;;11.83;77.94;98902.41;255249;1104;115793;-67
2021/08/07 01:00:44;;;;;;;3.73;2.30;;;;;;;11.75;77.65;98899.15;256479;1104;116117;-67
2021/08/07 01:06:09;;;;;;;4.13;2.90;;;;;;;11.61;77.23;98895.38;253913;1104;116554;-67
2021/08/07 01:11:34;;;;;;;15.85;3.95;;;;;;;11.43;77.25;98903.83;255462;1104;115932;-66
2021/08/07 01:16:42;;;;;;;2.88;2.55;;;;;;;11.29;77.30;98910.72;255814;1104;115450;-67
2021/08/07 01:22:00;;;;;;;4.65;2.50;;;;;;;11.20;78.18;98904.26;255563;1104;115408;-67
2021/08/07 01:27:09;;;;;;;4.40;3.58;;;;;;;11.12;77.60;98909.02;255733;1104;117138;-65
2021/08/07 01:32:13;;;;;;;6.95;2.85;;;;;;;11.16;77.89;98900.50;255999;1104;115910;-67
2021/08/07 01:37:19;;;;;;;5.85;3.90;;;;;;;11.24;78.71;98902.69;255470;1104;115679;-68
2021/08/07 01:42:26;;;;;;;7.00;2.88;;;;;;;11.17;78.25;98902.11;256193;1104;115603;-67
2021/08/07 01:47:48;;;;;;;5.10;3.43;;;;;;;11.13;78.46;98899.95;255187;1099;115642;-68
2021/08/07 01:52:58;;;;;;;4.93;3.23;;;;;;;11.10;78.18;98900.47;254385;1099;116816;-67
2021/08/07 01:58:09;;;;;;;6.10;2.60;;;;;;;11.03;78.09;98904.41;253887;1104;115788;-68
2021/08/07 02:03:13;;;;;;;4.58;2.60;;;;;;;10.89;77.98;98898.74;257282;1104;116386;-68
2021/08/07 02:08:17;;;;;;;3.28;2.98;;;;;;;10.75;77.79;98902.90;257297;1104;115263;-68
2021/08/07 02:13:22;;;;;;;5.95;4.60;;;;;;;10.67;77.96;98898.06;257248;1104;116700;-68
2021/08/07 02:18:26;;;;;;;8.23;3.97;;;;;;;10.65;77.86;98894.84;257311;1104;116726;-67
2021/08/07 02:23:30;;;;;;;5.05;3.55;;;;;;;10.62;78.27;98893.50;256872;1104;116769;-68
2021/08/07 02:28:33;;;;;;;3.63;3.33;;;;;;;10.51;77.65;98901.66;255976;1104;114788;-67
2021/08/07 02:33:37;;;;;;;3.50;3.20;;;;;;;10.42;78.26;98907.44;257110;1104;115080;-68
2021/08/07 02:38:44;;;;;;;2.73;2.47;;;;;;;10.39;78.48;98907.98;254366;1104;115359;-67
2021/08/07 02:43:48;;;;;;;4.00;3.20;;;;;;;10.42;78.82;98912.77;255338;1104;115692;-66
2021/08/07 02:48:54;;;;;;;3.30;2.98;;;;;;;10.43;78.78;98906.39;254836;1104;116470;-66
2021/08/07 02:53:58;;;;;;;3.60;2.93;;;;;;;10.44;78.57;98907.99;256826;1104;116118;-67
2021/08/07 02:59:01;;;;;;;2.83;2.63;;;;;;;10.40;78.66;98909.55;255924;1104;116450;-66
2021/08/07 03:04:04;;;;;;;3.48;3.18;;;;;;;10.36;78.67;98900.48;255975;1104;116042;-66
2021/08/07 03:09:07;;;;;;;5.55;3.03;;;;;;;10.34;78.48;98902.59;255070;1104;116013;-66
2021/08/07 03:14:10;;;;;;;5.48;3.53;;;;;;;10.31;78.36;98905.77;254270;1104;115547;-66
2021/08/07 03:19:13;;;;;;;3.73;3.13;;;;;;;10.29;78.88;98907.88;255257;1104;115488;-68
2021/08/07 03:24:16;;;;;;;6.00;3.18;;;;;;;10.23;79.13;98908.88;254414;1104;116001;-66
2021/08/07 03:29:22;;;;;;;3.18;2.90;;;;;;;10.19;79.30;98913.10;254438;1104;115892;-66
2021/08/07 03:34:25;;;;;;;6.27;3.50;;;;;;;10.19;78.92;98918.42;254066;1104;116705;-66
2021/08/07 03:39:28;;;;;;;6.48;3.40;;;;;;;10.23;79.67;98914.20;255618;1099;115130;-66
2021/08/07 03:44:31;;;;;;;5.78;3.50;;;;;;;10.25;79.71;98914.77;254904;1104;116195;-66
2021/08/07 03:49:34;;;;;;;5.20;3.88;;;;;;;10.34;79.58;98915.92;254224;1104;115639;-66
2021/08/07 03:54:38;;;;;;;7.08;4.48;;;;;;;10.52;79.54;98917.39;255486;1104;116644;-67
2021/08/07 03:59:41;;;;;;;6.30;5.03;;;;;;;10.78;80.12;98913.86;255090;1104;115977;-67
2021/08/07 04:04:45;;;;;;;5.33;4.83;;;;;;;10.94;79.76;98919.31;254210;1104;115696;-67
2021/08/07 04:09:48;;;;;;;5.63;5.10;;;;;;;11.19;79.58;98922.13;255050;1104;116217;-68
2021/08/07 04:14:52;;;;;;;5.78;5.03;;;;;;;11.96;79.03;98925.94;254474;1104;116611;-67
2021/08/07 04:19:56;;;;;;;11.77;4.03;;;;;;;12.33;78.61;98926.55;257111;1104;115999;-68
2021/08/07 04:25:00;;;;;;;6.87;5.40;;;;;;;12.45;77.81;98920.95;257079;1104;115422;-69
2021/08/07 04:30:05;;;;;;;4.67;4.27;;;;;;;12.73;77.53;98930.31;257336;1104;116646;-67
2021/08/07 04:35:10;;;;;;;8.60;4.17;;;;;;;12.70;78.09;98920.95;257282;1103;115566;-67
2021/08/07 04:40:13;;;;;;;5.13;3.93;;;;;;;12.98;77.16;98916.11;257245;1103;114864;-68
2021/08/07 04:45:17;;;;;;;6.13;4.85;;;;;;;13.07;77.46;98925.20;256792;1103;115391;-67
2021/08/07 04:50:23;;;;;;;5.20;4.70;;;;;;;13.11;77.71;98919.04;255997;1104;115218;-66
2021/08/07 04:55:27;;;;;;;6.17;4.73;;;;;;;13.04;77.53;98926.53;256867;1104;116913;-67
2021/08/07 05:00:31;;;;;;;7.00;3.97;;;;;;;13.04;77.87;98925.73;255854;1104;116334;-67
2021/08/07 05:05:34;;;;;;;5.45;4.90;;;;;;;13.09;78.11;98929.20;257103;1104;115298;-67
2021/08/07 05:10:38;;;;;;;5.20;4.38;;;;;;;13.26;78.45;98922.77;255358;1104;114359;-67
2021/08/07 05:15:41;;;;;;;5.13;4.63;;;;;;;13.40;78.15;98932.64;255909;1104;115639;-68
2021/08/07 05:20:44;;;;;;;6.67;4.53;;;;;;;14.18;77.25;98932.00;257005;1104;116274;-66
2021/08/07 05:25:48;;;;;;;2.98;2.78;;;;;;;17.45;74.36;98923.05;254223;1104;115100;-65
2021/08/07 05:30:52;;;;;;;4.03;3.75;;;;;;;19.08;72.73;98937.20;256852;1104;116496;-66
2021/08/07 05:35:55;;;;;;;3.75;3.45;;;;;;;22.40;69.19;98932.38;254907;1098;115287;-68
2021/08/07 05:40:58;;;;;;;4.43;3.90;;;;;;;23.82;67.11;98939.98;253932;1098;115569;-66
2021/08/07 05:46:01;;;;;;;4.83;4.30;;;;;;;26.11;63.18;98939.48;253791;1098;115182;-67
2021/08/07 05:51:04;;;;;;;4.55;4.15;;;;;;;26.98;61.04;98944.42;255444;1104;114871;-68
2021/08/07 05:56:07;;;;;;;3.43;2.95;;;;;;;25.78;59.91;98954.36;257020;1104;115281;-67
2021/08/07 06:01:10;;;;;;;7.43;4.08;;;;;;;24.45;59.12;98945.79;254094;1104;115085;-69
2021/08/07 06:06:13;;;;;;;4.60;3.43;;;;;;;24.39;58.71;98949.09;253819;1104;116030;-68
2021/08/07 06:11:16;;;;;;;4.40;4.00;;;;;;;23.37;60.23;98947.42;253847;1104;114459;-68
2021/08/07 06:16:19;;;;;;;4.33;3.90;;;;;;;22.63;60.83;98949.10;253709;1104;115350;-68
2021/08/07 06:21:22;;;;;;;5.90;4.98;;;;;;;21.88;61.56;98959.06;257004;1104;114754;-68
2021/08/07 06:26:26;;;;;;;7.33;4.20;;;;;;;21.28;61.90;98959.33;257066;1104;115710;-68
2021/08/07 06:31:28;;;;;;;4.48;4.18;;;;;;;20.54;63.25;98963.08;257102;1104;115417;-68
2021/08/07 06:36:32;;;;;;;5.05;4.65;;;;;;;20.33;63.90;98965.60;257234;1104;115653;-67
2021/08/07 06:41:35;;;;;;;5.60;5.10;;;;;;;20.16;64.18;98976.42;257357;1104;116105;-68
2021/08/07 06:46:38;;;;;;;7.87;4.97;;;;;;;19.95;65.10;98978.11;257280;1104;115562;-68
2021/08/07 06:51:41;;;;;;;5.58;4.33;;;;;;;19.95;65.79;98975.40;257080;1104;117413;-67
2021/08/07 06:56:48;;;;;;;6.13;3.80;;;;;;;19.91;65.73;98969.82;257054;1104;115167;-67
2021/08/07 07:01:51;;;;;;;6.10;5.60;;;;;;;20.02;66.55;98967.63;257153;1104;116138;-67
2021/08/07 07:06:56;;;;;;;9.80;5.03;;;;;;;21.11;66.22;98974.48;257039;1103;115240;-67
2021/08/07 07:12:00;;;;;;;4.73;4.38;;;;;;;22.94;65.36;98978.58;257166;1104;115206;-67
2021/08/07 07:17:02;;;;;;;5.88;5.38;;;;;;;23.70;64.03;98991.69;255342;1104;115745;-68
2021/08/07 07:22:06;;;;;;;6.68;5.88;;;;;;;24.54;63.77;98993.88;253900;1104;115943;-67
2021/08/07 07:27:09;;;;;;;5.50;5.10;;;;;;;25.14;62.45;99001.04;253954;1104;116404;-65
2021/08/07 07:32:12;;;;;;;5.50;4.98;;;;;;;25.43;62.19;99000.64;254459;1104;115561;-69
2021/08/07 07:37:16;;;;;;;8.83;5.43;;;;;;;25.62;60.82;99002.69;253747;1104;116564;-68
2021/08/07 07:42:20;;;;;;;4.95;4.20;;;;;;;25.72;60.61;99009.56;254078;1104;115747;-66
2021/08/07 07:47:24;;;;;;;5.55;5.05;;;;;;;25.77;60.69;99007.38;254633;1104;115006;-66
2021/08/07 07:52:27;;;;;;;5.80;4.38;;;;;;;25.75;60.56;99019.78;254094;1104;115532;-65
2021/08/07 07:57:31;;;;;;;4.45;4.15;;;;;;;25.84;60.77;99031.33;253965;1104;115298;-67
2021/08/07 08:02:35;;;;;;;4.20;3.90;;;;;;;25.92;60.51;99035.03;254234;1104;115692;-67
2021/08/07 08:07:42;;;;;;;3.98;3.50;;;;;;;25.79;59.49;99037.84;255334;1104;115223;-67
2021/08/07 08:12:45;;;;;;;4.03;3.73;;;;;;;25.73;59.94;99043.91;254775;1104;115040;-67
2021/08/07 08:17:48;;;;;;;5.43;4.03;;;;;;;25.74;59.90;99029.12;254037;1099;115329;-66
2021/08/07 08:22:52;;;;;;;3.93;3.53;;;;;;;25.77;59.52;99029.21;253731;1104;114925;-66
2021/08/07 08:27:56;;;;;;;4.00;3.70;;;;;;;25.73;60.14;99038.45;253755;1104;114901;-68
2021/08/07 08:32:59;;;;;;;3.70;3.40;;;;;;;26.05;59.88;99044.69;253810;1104;115534;-67
2021/08/07 08:38:03;;;;;;;3.20;3.00;;;;;;;26.20;59.34;99046.63;253877;1104;114982;-67
2021/08/07 08:43:06;;;;;;;2.80;2.63;;;;;;;26.16;59.35;99040.28;255011;1104;115088;-66
2021/08/07 08:48:11;;;;;;;1.83;1.77;;;;;;;26.16;58.86;99053.94;254448;1104;115010;-66
2021/08/07 08:53:15;;;;;;;4.50;2.73;;;;;;;25.93;57.43;99056.52;256478;1104;115129;-68
2021/08/07 08:58:18;;;;;;;2.95;2.75;;;;;;;25.83;58.41;99052.38;257180;1103;115153;-68
2021/08/07 09:03:21;;;;;;;3.83;3.53;;;;;;;26.04;58.45;99049.36;256002;1104;115338;-69
2021/08/07 09:08:25;;;;;;;2.67;2.37;;;;;;;25.99;58.20;99054.33;253917;1104;114569;-66
2021/08/07 09:13:30;;;;;;;3.20;2.90;;;;;;;25.73;57.97;99055.63;253886;1103;115046;-65
2021/08/07 09:18:33;;;;;;;3.10;2.90;;;;;;;25.86;58.73;99066.47;255264;1104;116064;-66
2021/08/07 09:23:37;;;;;;;2.90;2.80;;;;;;;25.96;58.39;99064.02;254437;1104;115550;-66
2021/08/07 09:28:47;;;;;;;3.43;2.95;;;;;;;26.08;57.29;99063.11;253834;1104;115054;-65
2021/08/07 09:34:16;;;;;;;2.80;2.60;;;;;;;25.96;56.80;99063.22;253688;1099;116672;-70
2021/08/07 09:39:40;;;;;;;3.40;3.10;;;;;;;26.08;56.80;99071.30;253945;1099;115041;-70
2021/08/07 09:44:43;;;;;;;2.55;2.35;;;;;;;26.27;57.48;99056.93;253957;1104;116071;-69
2021/08/07 09:49:47;;;;;;;4.03;2.47;;;;;;;26.56;56.71;99061.92;254015;1099;115304;-68
2021/08/07 09:54:51;;;;;;;2.33;2.13;;;;;;;26.74;56.15;99059.55;253753;1099;116083;-69
2021/08/07 09:59:53;;;;;;;3.93;2.13;;;;;;;26.52;55.17;99071.19;254676;1104;116008;-71
2021/08/07 10:05:00;;;;;;;2.33;2.03;;;;;;;26.20;54.72;99070.42;254297;1104;115948;-70
2021/08/07 10:10:30;;;;;;;3.40;2.13;;;;;;;26.02;54.75;99068.04;253763;1103;114786;-69
2021/08/07 10:15:36;;;;;;;3.13;2.45;;;;;;;26.20;54.96;99073.15;253749;1104;115253;-69
2021/08/07 10:20:43;;;;;;;2.25;1.98;;;;;;;26.06;54.65;99068.92;253991;1104;114988;-67
2021/08/07 10:25:46;;;;;;;2.23;1.73;;;;;;;26.11;53.99;99065.13;253701;1104;115433;-69
2021/08/07 10:30:49;;;;;;;2.27;2.03;;;;;;;25.83;54.34;99068.76;253863;1104;114783;-68
2021/08/07 10:35:54;;;;;;;1.63;1.63;;;;;;;26.44;54.22;99071.02;253943;1104;114355;-69
2021/08/07 10:40:57;;;;;;;2.55;2.08;;;;;;;26.90;53.90;99063.03;255154;1104;116154;-70
2021/08/07 10:46:00;;;;;;;2.27;1.67;;;;;;;27.17;53.64;99069.46;253812;1104;115832;-71
2021/08/07 10:51:24;;;;;;;2.58;1.75;;;;;;;27.35;52.84;99067.05;253748;1099;114833;-70
2021/08/07 10:56:42;;;;;;;2.73;1.83;;;;;;;27.25;52.55;99062.16;253828;1104;117194;-68
2021/08/07 11:01:48;;;;;;;5.27;2.10;;;;;;;27.28;52.25;99059.50;253745;1104;114856;-70
2021/08/07 11:06:57;;;;;;;2.43;2.23;;;;;;;26.86;51.85;99055.91;256234;1104;116381;-70
2021/08/07 11:12:06;;;;;;;1.40;1.40;;;;;;;26.74;52.17;99052.14;257221;1104;115611;-70
2021/08/07 11:17:12;;;;;;;14.78;3.55;;;;;;;27.05;52.01;99053.98;256374;1103;116401;-69
2021/08/07 11:22:19;;;;;;;1.70;1.60;;;;;;;27.07;51.70;99061.83;253814;1104;206266;-70
2021/08/07 11:28:03;;;;;;;1.90;1.73;;;;;;;26.96;51.52;99058.08;253774;1104;115111;-70
2021/08/07 11:33:09;;;;;;;12.20;2.03;;;;;;;26.74;51.77;99065.81;253856;1104;115373;-71
2021/08/07 11:38:22;;;;;;;5.08;1.93;;;;;;;26.99;51.77;99054.63;254668;1104;115550;-70
2021/08/07 11:43:41;;;;;;;1.93;1.80;;;;;;;27.17;50.96;99063.98;254724;1104;115835;-71
2021/08/07 11:48:50;;;;;;;3.25;2.33;;;;;;;26.86;50.75;99070.37;254090;1104;116345;-71
2021/08/07 11:53:56;;;;;;;1.70;1.60;;;;;;;26.88;50.77;99072.75;254910;1104;115263;-71
2021/08/07 11:59:00;;;;;;;;;;;;;;;27.03;50.55;99064.48;253878;1104;115154;-71
2021/08/07 12:04:02;;;;;;;3.13;1.93;;;;;;;27.12;49.84;99059.59;254453;1104;103504;-71
2021/08/07 12:09:11;;;;;;;2.95;2.03;;;;;;;26.55;50.02;99070.47;253762;1100;115227;-71
2021/08/07 12:14:26;;;;;;;1.70;1.60;;;;;;;26.47;50.53;99072.25;253733;1104;115216;-72
2021/08/07 12:19:29;;;;;;;3.87;1.87;;;;;;;26.81;49.98;99048.77;253839;1104;118283;-71
2021/08/07 12:24:32;;;;;;;1.58;1.48;;;;;;;27.03;49.54;99039.87;253777;1104;114679;-71
2021/08/07 12:29:35;;;;;;;2.87;1.80;;;;;;;26.57;49.39;99049.05;253962;1104;114910;-71
2021/08/07 12:34:39;;;;;;;1.70;1.60;;;;;;;26.36;49.45;99055.60;254368;1100;114800;-72
2021/08/07 12:39:53;;;;;;;2.05;1.95;;;;;;;26.20;49.71;99056.77;253852;1104;115440;-70
2021/08/07 12:45:06;;;;;;;2.33;1.60;;;;;;;26.39;50.05;99049.42;255059;1103;114654;-70
2021/08/07 12:50:18;;;;;;;6.43;2.48;;;;;;;26.91;50.26;99037.24;253815;1104;115397;-70
2021/08/07 12:55:21;;;;;;;3.73;1.93;;;;;;;27.02;49.12;99037.49;253927;1104;115272;-69
2021/08/07 13:00:29;;;;;;;1.55;1.45;;;;;;;26.63;48.88;99053.84;253859;1099;115333;-67
2021/08/07 13:05:32;;;;;;;1.00;1.00;;;;;;;26.69;49.50;99043.43;254586;1098;115150;-72
2021/08/07 13:10:35;;;;;;;2.43;1.90;;;;;;;26.56;49.24;99037.31;256569;1104;114821;-69
2021/08/07 13:15:47;;;;;;;2.15;1.80;;;;;;;26.67;49.47;99053.92;253807;1104;115060;-70
2021/08/07 13:20:52;;;;;;;1.50;1.40;;;;;;;26.81;49.42;99054.24;254261;1104;116423;-69
2021/08/07 13:26:09;;;;;;;2.93;1.63;;;;;;;27.02;48.71;99060.17;256436;1103;114901;-69
2021/08/07 13:31:12;;;;;;;1.90;1.73;;;;;;;27.21;48.25;99055.86;254535;1104;116134;-70
2021/08/07 13:36:15;;;;;;;1.55;1.45;;;;;;;27.15;47.84;99050.67;257102;1104;114931;-69
2021/08/07 13:41:18;;;;;;;1.40;1.33;;;;;;;27.06;47.88;99052.83;257212;1103;116677;-69
2021/08/07 13:46:21;;;;;;;1.80;1.70;;;;;;;26.64;47.61;99044.50;255839;1098;115573;-68
2021/08/07 13:51:24;;;;;;;1.70;1.60;;;;;;;26.69;47.52;99046.95;255022;1104;115082;-69
2021/08/07 13:56:28;;;;;;;1.43;1.23;;;;;;;26.55;48.00;99045.88;253882;1104;115035;-70
2021/08/07 14:01:31;;;;;;;2.75;1.50;;;;;;;26.24;47.97;99044.77;254750;1104;116082;-69
2021/08/07 14:06:34;;;;;;;1.80;1.45;;;;;;;26.28;48.40;99034.72;253942;1099;115298;-70
2021/08/07 14:11:37;;;;;;;1.00;0.90;;;;;;;26.48;47.89;99036.36;253800;1098;114450;-70
2021/08/07 14:16:40;;;;;;;1.53;1.28;;;;;;;26.53;47.62;99040.77;253932;1103;115160;-69
2021/08/07 14:21:42;;;;;;;1.20;1.20;;;;;;;26.56;47.11;99044.72;253743;1104;115262;-69
2021/08/07 14:26:46;;;;;;;1.43;1.33;;;;;;;26.65;47.37;99045.30;253642;1104;114980;-70
2021/08/07 14:31:50;;;;;;;2.20;2.00;;;;;;;26.60;47.31;99037.40;253804;1104;114536;-70
2021/08/07 14:36:53;;;;;;;1.67;1.57;;;;;;;26.76;47.09;99035.38;253915;1104;115593;-70
2021/08/07 14:41:57;;;;;;;2.35;1.30;;;;;;;26.88;46.36;99027.05;253894;1104;115575;-69
2021/08/07 14:47:00;;;;;;;1.20;1.20;;;;;;;26.68;46.46;99019.97;253786;1104;115712;-67
2021/08/07 14:52:04;;;;;;;1.00;0.90;;;;;;;26.74;45.89;99015.81;253776;1100;114960;-69
2021/08/07 14:57:07;;;;;;;1.80;1.60;;;;;;;26.42;46.17;99020.59;253894;1104;115097;-67
2021/08/07 15:02:10;;;;;;;2.70;1.25;;;;;;;26.08;46.15;99016.67;253763;1104;115908;-68
2021/08/07 15:07:13;;;;;;;2.83;1.23;;;;;;;26.03;46.51;99015.00;253641;1098;115077;-68
2021/08/07 15:12:16;;;;;;;1.30;1.30;;;;;;;26.03;45.80;99019.67;253653;1103;115006;-69
2021/08/07 15:17:19;;;;;;;1.28;1.18;;;;;;;25.92;46.24;99029.57;257113;1104;115243;-69
2021/08/07 15:22:22;;;;;;;1.40;1.30;;;;;;;25.57;46.32;99026.72;257109;1104;116627;-68
2021/08/07 15:27:25;;;;;;;4.43;1.40;;;;;;;25.24;46.30;99033.27;256229;1103;114731;-68
2021/08/07 15:32:28;;;;;;;1.63;1.43;;;;;;;25.18;47.05;99042.84;253861;1104;114519;-67
2021/08/07 15:37:31;;;;;;;1.93;1.70;;;;;;;25.33;47.25;99033.13;253794;1104;115996;-67
2021/08/07 15:42:36;;;;;;;1.55;1.50;;;;;;;25.12;47.39;99036.84;253558;1104;114521;-68
2021/08/07 15:47:42;;;;;;;1.80;1.70;;;;;;;24.89;47.74;99027.60;253711;1104;116657;-68
2021/08/07 15:52:48;;;;;;;1.25;1.23;;;;;;;24.81;48.00;99033.98;256204;1100;114847;-67
2021/08/07 15:57:52;;;;;;;3.63;1.50;;;;;;;24.76;48.84;99028.80;253647;1100;115263;-67
2021/08/07 16:02:56;;;;;;;2.20;1.23;;;;;;;24.77;48.89;99024.91;253759;1104;115274;-67
2021/08/07 16:08:02;;;;;;;1.35;1.35;;;;;;;24.72;48.44;99033.35;254728;1104;115171;-68
2021/08/07 16:13:05;;;;;;;1.68;1.58;;;;;;;24.68;48.53;99027.80;254406;1104;115543;-68
2021/08/07 16:18:08;;;;;;;3.28;1.73;;;;;;;24.65;48.75;99014.86;253900;1104;117152;-67
2021/08/07 16:23:12;;;;;;;1.67;1.57;;;;;;;24.62;48.76;99017.47;255650;1104;115749;-68
2021/08/07 16:28:15;;;;;;;1.80;1.70;;;;;;;24.54;49.09;99018.40;256377;1104;116916;-67
2021/08/07 16:33:17;;;;;;;1.55;1.45;;;;;;;24.45;49.48;99016.63;253594;1104;115805;-68
2021/08/07 16:38:21;;;;;;;1.80;1.70;;;;;;;24.33;50.18;99026.73;255911;1104;117331;-68
2021/08/07 16:43:24;;;;;;;1.70;1.60;;;;;;;24.13;50.14;99028.44;256243;1100;115612;-68
2021/08/07 16:48:28;;;;;;;1.73;1.63;;;;;;;23.97;51.05;99022.08;256988;1104;116205;-68
2021/08/07 16:53:31;;;;;;;2.25;2.15;;;;;;;23.85;51.52;99028.30;255694;1103;115151;-66
2021/08/07 16:58:42;;;;;;;2.25;2.00;;;;;;;23.66;52.29;99020.70;253748;1103;115161;-67
2021/08/07 17:03:45;;;;;;;1.80;1.70;;;;;;;23.45;52.54;99025.41;253650;1099;114681;-68
2021/08/07 17:08:50;;;;;;;2.85;2.08;;;;;;;23.20;53.43;99035.43;253767;1104;115200;-68
2021/08/07 17:13:54;;;;;;;6.83;2.43;;;;;;;22.99;54.74;99029.22;253759;1104;115717;-67
2021/08/07 17:18:57;;;;;;;2.05;1.95;;;;;;;22.80;55.62;99027.79;255314;1104;115625;-66
2021/08/07 17:24:04;;;;;;;4.18;2.60;;;;;;;22.59;56.50;99026.19;257234;1103;114938;-68
2021/08/07 17:29:08;;;;;;;2.00;1.80;;;;;;;22.42;57.27;99033.31;257184;1104;115348;-68
2021/08/07 17:34:11;;;;;;;2.00;1.73;;;;;;;22.32;57.89;99041.06;257075;1104;115182;-68
2021/08/07 17:39:16;;;;;;;4.20;2.40;;;;;;;22.21;58.48;99039.84;257134;1104;116223;-67
2021/08/07 17:44:20;;;;;;;2.07;1.97;;;;;;;22.10;59.08;99052.98;257181;1104;115821;-68
2021/08/07 17:49:26;;;;;;;9.35;2.75;;;;;;;21.95;59.29;99046.18;255509;1104;115232;-68
2021/08/07 17:54:31;;;;;;;3.15;2.45;;;;;;;21.76;59.31;99051.98;253655;1103;115363;-66
2021/08/07 17:59:34;;;;;;;2.43;2.33;;;;;;;21.52;59.70;99049.04;253852;1099;114628;-67
2021/08/07 18:04:37;;;;;;;2.25;2.15;;;;;;;21.32;60.23;99052.45;253879;1104;115006;-66
2021/08/07 18:09:45;;;;;;;2.38;2.03;;;;;;;21.09;60.36;99052.62;255075;1098;115067;-65
2021/08/07 18:14:48;;;;;;;2.48;2.35;;;;;;;20.74;60.90;99059.16;255798;1104;114813;-67
2021/08/07 18:19:51;;;;;;;2.33;2.23;;;;;;;20.36;61.25;99051.59;253647;1104;115364;-67
2021/08/07 18:24:55;;;;;;;5.05;2.58;;;;;;;19.98;61.88;99054.02;256941;1104;115411;-67
2021/08/07 18:30:02;;;;;;;2.98;2.85;;;;;;;19.66;62.01;99062.47;253692;1104;114856;-69
2021/08/07 18:35:08;;;;;;;3.23;3.03;;;;;;;19.37;62.65;99065.63;255030;1104;115873;-69
2021/08/07 18:40:12;;;;;;;3.65;3.05;;;;;;;19.22;63.19;99064.11;256639;1104;115913;-68
2021/08/07 18:45:15;;;;;;;3.43;3.10;;;;;;;19.01;63.52;99065.69;255534;1104;115146;-68
2021/08/07 18:50:20;;;;;;;8.20;4.80;;;;;;;18.78;63.62;99071.08;253673;1104;115591;-66
2021/08/07 18:55:25;;;;;;;5.75;4.25;;;;;;;18.61;64.17;99070.13;255976;1104;115012;-66
2021/08/07 19:00:30;;;;;;;10.20;6.33;;;;;;;18.55;64.92;99068.61;257156;1104;115140;-69
2021/08/07 19:05:55;;;;;;;4.45;4.03;;;;;;;18.46;65.07;99065.81;255206;1099;115400;-67
2021/08/07 19:10:59;;;;;;;6.30;4.73;;;;;;;18.42;65.09;99062.13;256772;1104;114528;-67
2021/08/07 19:16:03;;;;;;;5.10;4.68;;;;;;;18.35;65.21;99065.22;257017;1104;115359;-67
2021/08/07 19:21:08;;;;;;;4.73;3.95;;;;;;;18.23;65.07;99062.26;256097;1104;115581;-68
2021/08/07 19:26:13;;;;;;;5.15;4.75;;;;;;;17.99;65.74;99073.26;253818;1098;114957;-67
2021/08/07 19:31:19;;;;;;;7.15;5.03;;;;;;;17.89;65.86;99070.75;253540;1104;115373;-67
2021/08/07 19:36:22;;;;;;;7.65;3.88;;;;;;;17.82;66.40;99073.83;257049;1104;115418;-67
2021/08/07 19:41:27;;;;;;;4.98;3.70;;;;;;;17.66;65.99;99075.22;257186;1104;115756;-67
2021/08/07 19:46:31;;;;;;;7.80;4.70;;;;;;;17.54;66.74;99074.86;257171;1103;115747;-68
2021/08/07 19:51:35;;;;;;;6.67;5.37;;;;;;;17.48;66.98;99067.95;257051;1104;116114;-67
2021/08/07 19:56:39;;;;;;;4.88;4.48;;;;;;;17.48;67.15;99067.95;254250;1104;115958;-67
2021/08/07 20:01:43;;;;;;;9.70;6.00;;;;;;;17.44;67.27;99069.63;257141;1104;114991;-68
2021/08/07 20:06:47;;;;;;;8.40;6.85;;;;;;;17.39;67.40;99069.75;257251;1103;116107;-69
2021/08/07 20:11:51;;;;;;;8.00;5.95;;;;;;;17.30;67.15;99061.53;254848;1104;115335;-67
2021/08/07 20:16:56;;;;;;;10.90;7.73;;;;;;;16.98;67.31;99075.77;257223;1104;114569;-68
2021/08/07 20:22:01;;;;;;;10.13;7.73;;;;;;;16.87;67.98;99079.70;254854;1104;115328;-68
2021/08/07 20:27:05;;;;;;;8.98;6.90;;;;;;;16.80;68.08;99081.98;254074;1104;116949;-66
2021/08/07 20:32:10;;;;;;;13.58;8.40;;;;;;;16.74;68.23;99080.45;255523;1104;115630;-66
2021/08/07 20:37:14;;;;;;;31.65;9.85;;;;;;;16.75;68.79;99076.66;254243;1104;115795;-66
2021/08/07 20:42:18;;;;;;;16.05;9.68;;;;;;;16.64;68.64;99065.23;253792;1104;116711;-66
2021/08/07 20:47:21;;;;;;;14.78;10.13;;;;;;;16.57;69.15;99062.06;255467;1104;116100;-67
2021/08/07 20:52:25;;;;;;;16.00;10.45;;;;;;;16.61;69.45;99048.84;254577;1103;116129;-65
2021/08/07 20:57:29;;;;;;;12.45;9.43;;;;;;;16.54;69.22;99043.01;254058;1104;116935;-66
2021/08/07 21:02:32;;;;;;;15.95;9.60;;;;;;;16.42;69.43;99044.26;255740;1104;116112;-66
2021/08/07 21:07:36;;;;;;;14.68;9.90;;;;;;;16.32;69.51;99035.52;253803;1104;115938;-66
2021/08/07 21:12:39;;;;;;;11.83;9.40;;;;;;;16.21;69.80;99031.34;254787;1104;114767;-66
2021/08/07 21:17:43;;;;;;;11.60;8.85;;;;;;;16.19;69.86;99031.66;255387;1104;115611;-66
2021/08/07 21:22:48;;;;;;;9.57;8.43;;;;;;;16.22;70.46;99024.88;254164;1104;115770;-67
2021/08/07 21:27:52;;;;;;;16.18;10.08;;;;;;;16.11;70.22;99029.61;257346;1104;114876;-66
2021/08/07 21:32:57;;;;;;;16.63;8.63;;;;;;;16.03;70.72;99035.61;254612;1104;115355;-66
2021/08/07 21:38:01;;;;;;;11.30;8.68;;;;;;;16.07;70.76;99031.27;255399;1104;118295;-66
2021/08/07 21:43:09;;;;;;;18.30;10.10;;;;;;;16.06;70.87;99022.39;257115;1104;115712;-66
2021/08/07 21:48:12;;;;;;;8.60;7.70;;;;;;;16.10;71.27;99028.00;257196;1104;115748;-66
2021/08/07 21:53:15;;;;;;;9.60;7.85;;;;;;;16.07;71.29;99018.63;257162;1104;114743;-67
2021/08/07 21:58:18;;;;;;;11.25;7.48;;;;;;;16.09;71.42;99010.27;257131;1104;115261;-67
2021/08/07 22:03:22;;;;;;;10.05;7.55;;;;;;;16.08;71.47;99008.67;257176;1104;115430;-67
2021/08/07 22:08:25;;;;;;;14.55;8.25;;;;;;;16.06;71.63;99008.95;257254;1103;116152;-66
2021/08/07 22:13:28;;;;;;;10.55;9.45;;;;;;;16.16;72.41;99011.52;257083;1104;115332;-66
2021/08/07 22:18:31;;;;;;;8.73;7.85;;;;;;;16.38;72.77;99010.95;257163;1103;115490;-66
2021/08/07 22:23:35;;;;;;;8.63;7.00;;;;;;;16.65;72.83;99018.40;256642;1104;115370;-67
2021/08/07 22:28:39;;;;;;;7.80;7.05;;;;;;;16.93;72.50;99024.70;257044;1104;115013;-66
2021/08/07 22:33:42;;;;;;;10.30;6.70;;;;;;;17.18;72.53;99010.81;256871;1103;114570;-66
2021/08/07 22:38:45;;;;;;;7.55;6.70;;;;;;;17.35;71.87;99020.24;255808;1100;116688;-66
2021/08/07 22:43:49;;;;;;;7.58;6.88;;;;;;;17.44;71.47;99013.05;254619;1103;115095;-65
2021/08/07 22:48:54;;;;;;;8.80;7.43;;;;;;;17.53;71.38;99007.78;254391;1098;116116;-66
2021/08/07 22:53:58;;;;;;;8.70;7.20;;;;;;;17.58;71.12;99008.49;255775;1104;116074;-65
2021/08/07 22:59:01;;;;;;;7.73;6.97;;;;;;;17.65;71.01;99011.63;255549;1099;115931;-65
2021/08/07 23:04:03;;;;;;;9.58;7.10;;;;;;;17.69;70.91;99009.94;254678;1104;115138;-66
2021/08/07 23:09:06;;;;;;;7.80;6.93;;;;;;;17.76;70.79;98990.66;254382;1104;173942;-65
2021/08/07 23:14:09;;;;;;;9.50;7.30;;;;;;;17.82;70.91;98984.86;257266;1104;115947;-66
2021/08/07 23:19:11;;;;;;;8.47;7.57;;;;;;;17.90;70.44;98982.57;253808;1104;114650;-67
2021/08/07 23:24:15;;;;;;;7.75;6.13;;;;;;;17.83;70.45;98975.68;257143;1103;116053;-67